sensor_id;sensor_type;location;lat;lon;timestamp;P1;durP1;ratioP1;P2;durP2;ratioP2
7324;SDS011;3703;48.016;7.802;2023-06-19T00:00:51;9.30;;;8.13;;
7324;SDS011;3703;48.016;7.802;2023-06-19T00:03:19;8.00;;;7.17;;
7324;SDS011;3703;48.016;7.802;2023-06-19T00:05:46;9.93;;;6.80;;
7324;SDS011;3703;48.016;7.802;2023-06-19T00:08:13;7.30;;;6.17;;
7324;SDS011;3703;48.016;7.802;2023-06-19T00:10:40;8.90;;;7.33;;
7324;SDS011;3703;48.016;7.802;2023-06-19T00:13:07;8.20;;;6.10;;
7324;SDS011;3703;48.016;7.802;2023-06-19T00:15:35;11.67;;;7.50;;
7324;SDS011;3703;48.016;7.802;2023-06-19T00:18:03;7.13;;;5.07;;
7324;SDS011;3703;48.016;7.802;2023-06-19T00:20:32;6.57;;;4.67;;
7324;SDS011;3703;48.016;7.802;2023-06-19T00:23:00;5.00;;;4.50;;
7324;SDS011;3703;48.016;7.802;2023-06-19T00:25:27;6.87;;;5.03;;
7324;SDS011;3703;48.016;7.802;2023-06-19T00:27:54;5.30;;;4.77;;
7324;SDS011;3703;48.016;7.802;2023-06-19T00:30:22;7.80;;;5.17;;
7324;SDS011;3703;48.016;7.802;2023-06-19T00:32:49;8.63;;;5.07;;
7324;SDS011;3703;48.016;7.802;2023-06-19T00:35:19;5.87;;;5.27;;
7324;SDS011;3703;48.016;7.802;2023-06-19T00:37:47;6.87;;;5.47;;
7324;SDS011;3703;48.016;7.802;2023-06-19T00:40:16;7.03;;;5.17;;
7324;SDS011;3703;48.016;7.802;2023-06-19T00:42:52;7.90;;;5.23;;
7324;SDS011;3703;48.016;7.802;2023-06-19T00:45:20;6.27;;;5.40;;
7324;SDS011;3703;48.016;7.802;2023-06-19T00:47:48;8.20;;;5.20;;
7324;SDS011;3703;48.016;7.802;2023-06-19T00:50:16;6.50;;;5.33;;
7324;SDS011;3703;48.016;7.802;2023-06-19T00:52:45;4.90;;;4.40;;
7324;SDS011;3703;48.016;7.802;2023-06-19T00:55:12;7.40;;;4.90;;
7324;SDS011;3703;48.016;7.802;2023-06-19T00:57:41;5.53;;;4.87;;
7324;SDS011;3703;48.016;7.802;2023-06-19T01:00:09;8.57;;;5.47;;
7324;SDS011;3703;48.016;7.802;2023-06-19T01:02:38;6.27;;;5.10;;
7324;SDS011;3703;48.016;7.802;2023-06-19T01:05:06;7.33;;;6.23;;
7324;SDS011;3703;48.016;7.802;2023-06-19T01:07:37;6.00;;;5.10;;
7324;SDS011;3703;48.016;7.802;2023-06-19T01:10:13;6.57;;;5.57;;
7324;SDS011;3703;48.016;7.802;2023-06-19T01:12:45;5.40;;;4.70;;
7324;SDS011;3703;48.016;7.802;2023-06-19T01:15:19;9.27;;;5.63;;
7324;SDS011;3703;48.016;7.802;2023-06-19T01:17:47;9.27;;;6.07;;
7324;SDS011;3703;48.016;7.802;2023-06-19T01:20:16;11.47;;;5.33;;
7324;SDS011;3703;48.016;7.802;2023-06-19T01:22:44;9.07;;;5.70;;
7324;SDS011;3703;48.016;7.802;2023-06-19T01:25:12;12.87;;;5.10;;
7324;SDS011;3703;48.016;7.802;2023-06-19T01:27:39;11.33;;;5.53;;
7324;SDS011;3703;48.016;7.802;2023-06-19T01:30:08;10.30;;;4.93;;
7324;SDS011;3703;48.016;7.802;2023-06-19T01:32:40;9.17;;;5.80;;
7324;SDS011;3703;48.016;7.802;2023-06-19T01:35:15;10.23;;;5.87;;
7324;SDS011;3703;48.016;7.802;2023-06-19T01:37:47;9.20;;;5.87;;
7324;SDS011;3703;48.016;7.802;2023-06-19T01:40:16;14.63;;;6.73;;
7324;SDS011;3703;48.016;7.802;2023-06-19T01:42:46;14.03;;;6.80;;
7324;SDS011;3703;48.016;7.802;2023-06-19T01:45:18;16.90;;;7.20;;
7324;SDS011;3703;48.016;7.802;2023-06-19T01:47:46;9.67;;;6.17;;
7324;SDS011;3703;48.016;7.802;2023-06-19T01:50:13;13.73;;;6.87;;
7324;SDS011;3703;48.016;7.802;2023-06-19T01:52:41;7.43;;;5.30;;
7324;SDS011;3703;48.016;7.802;2023-06-19T01:55:10;9.73;;;5.33;;
7324;SDS011;3703;48.016;7.802;2023-06-19T01:57:37;7.87;;;5.60;;
7324;SDS011;3703;48.016;7.802;2023-06-19T02:00:05;7.60;;;4.83;;
7324;SDS011;3703;48.016;7.802;2023-06-19T02:02:35;7.53;;;4.50;;
7324;SDS011;3703;48.016;7.802;2023-06-19T02:05:02;6.63;;;4.70;;
7324;SDS011;3703;48.016;7.802;2023-06-19T02:07:31;6.43;;;4.70;;
7324;SDS011;3703;48.016;7.802;2023-06-19T02:09:58;5.53;;;4.60;;
7324;SDS011;3703;48.016;7.802;2023-06-19T02:12:26;6.50;;;4.43;;
7324;SDS011;3703;48.016;7.802;2023-06-19T02:14:53;10.57;;;4.73;;
7324;SDS011;3703;48.016;7.802;2023-06-19T02:17:21;7.10;;;4.97;;
7324;SDS011;3703;48.016;7.802;2023-06-19T02:19:48;6.77;;;4.63;;
7324;SDS011;3703;48.016;7.802;2023-06-19T02:22:16;5.53;;;4.20;;
7324;SDS011;3703;48.016;7.802;2023-06-19T02:24:43;6.93;;;4.10;;
7324;SDS011;3703;48.016;7.802;2023-06-19T02:27:11;4.63;;;4.13;;
7324;SDS011;3703;48.016;7.802;2023-06-19T02:29:39;5.70;;;4.10;;
7324;SDS011;3703;48.016;7.802;2023-06-19T02:32:07;7.60;;;4.73;;
7324;SDS011;3703;48.016;7.802;2023-06-19T02:34:34;4.23;;;3.77;;
7324;SDS011;3703;48.016;7.802;2023-06-19T02:37:01;4.83;;;3.60;;
7324;SDS011;3703;48.016;7.802;2023-06-19T02:39:29;6.00;;;4.33;;
7324;SDS011;3703;48.016;7.802;2023-06-19T02:41:56;4.73;;;4.27;;
7324;SDS011;3703;48.016;7.802;2023-06-19T02:44:23;5.23;;;4.30;;
7324;SDS011;3703;48.016;7.802;2023-06-19T02:46:52;5.97;;;4.03;;
7324;SDS011;3703;48.016;7.802;2023-06-19T02:49:19;7.47;;;4.10;;
7324;SDS011;3703;48.016;7.802;2023-06-19T02:51:46;6.20;;;4.03;;
7324;SDS011;3703;48.016;7.802;2023-06-19T02:54:13;4.20;;;3.77;;
7324;SDS011;3703;48.016;7.802;2023-06-19T02:56:40;4.87;;;3.60;;
7324;SDS011;3703;48.016;7.802;2023-06-19T02:59:08;5.93;;;3.90;;
7324;SDS011;3703;48.016;7.802;2023-06-19T03:01:35;6.90;;;4.10;;
7324;SDS011;3703;48.016;7.802;2023-06-19T03:04:03;4.77;;;4.27;;
7324;SDS011;3703;48.016;7.802;2023-06-19T03:06:31;5.37;;;4.13;;
7324;SDS011;3703;48.016;7.802;2023-06-19T03:09:04;5.17;;;4.43;;
7324;SDS011;3703;48.016;7.802;2023-06-19T03:11:37;6.80;;;4.63;;
7324;SDS011;3703;48.016;7.802;2023-06-19T03:14:05;6.27;;;4.50;;
7324;SDS011;3703;48.016;7.802;2023-06-19T03:16:34;4.73;;;4.10;;
7324;SDS011;3703;48.016;7.802;2023-06-19T03:19:01;6.67;;;4.53;;
7324;SDS011;3703;48.016;7.802;2023-06-19T03:21:31;9.80;;;4.23;;
7324;SDS011;3703;48.016;7.802;2023-06-19T03:24:00;6.53;;;3.93;;
7324;SDS011;3703;48.016;7.802;2023-06-19T03:26:27;6.70;;;4.17;;
7324;SDS011;3703;48.016;7.802;2023-06-19T03:28:55;7.50;;;4.50;;
7324;SDS011;3703;48.016;7.802;2023-06-19T03:31:22;5.47;;;4.63;;
7324;SDS011;3703;48.016;7.802;2023-06-19T03:33:49;5.27;;;4.20;;
7324;SDS011;3703;48.016;7.802;2023-06-19T03:36:17;6.63;;;4.00;;
7324;SDS011;3703;48.016;7.802;2023-06-19T03:38:45;7.10;;;4.27;;
7324;SDS011;3703;48.016;7.802;2023-06-19T03:41:12;5.57;;;4.63;;
7324;SDS011;3703;48.016;7.802;2023-06-19T03:43:39;5.17;;;4.50;;
7324;SDS011;3703;48.016;7.802;2023-06-19T03:46:06;6.23;;;4.90;;
7324;SDS011;3703;48.016;7.802;2023-06-19T03:48:33;5.73;;;4.37;;
7324;SDS011;3703;48.016;7.802;2023-06-19T03:51:00;4.77;;;4.27;;
7324;SDS011;3703;48.016;7.802;2023-06-19T03:53:30;7.10;;;4.70;;
7324;SDS011;3703;48.016;7.802;2023-06-19T03:55:57;7.63;;;4.10;;
7324;SDS011;3703;48.016;7.802;2023-06-19T03:58:24;5.67;;;4.37;;
7324;SDS011;3703;48.016;7.802;2023-06-19T04:00:51;7.20;;;4.80;;
7324;SDS011;3703;48.016;7.802;2023-06-19T04:03:19;6.67;;;4.60;;
7324;SDS011;3703;48.016;7.802;2023-06-19T04:05:47;5.93;;;4.63;;
7324;SDS011;3703;48.016;7.802;2023-06-19T04:08:15;6.67;;;4.77;;
7324;SDS011;3703;48.016;7.802;2023-06-19T04:10:43;5.40;;;4.43;;
7324;SDS011;3703;48.016;7.802;2023-06-19T04:13:11;5.40;;;4.80;;
7324;SDS011;3703;48.016;7.802;2023-06-19T04:15:39;6.70;;;4.57;;
7324;SDS011;3703;48.016;7.802;2023-06-19T04:18:09;7.73;;;4.80;;
7324;SDS011;3703;48.016;7.802;2023-06-19T04:20:36;7.13;;;5.10;;
7324;SDS011;3703;48.016;7.802;2023-06-19T04:23:03;5.57;;;4.80;;
7324;SDS011;3703;48.016;7.802;2023-06-19T04:25:30;6.63;;;4.87;;
7324;SDS011;3703;48.016;7.802;2023-06-19T04:27:59;7.23;;;4.93;;
7324;SDS011;3703;48.016;7.802;2023-06-19T04:30:28;6.97;;;4.90;;
7324;SDS011;3703;48.016;7.802;2023-06-19T04:32:56;5.67;;;4.63;;
7324;SDS011;3703;48.016;7.802;2023-06-19T04:35:23;5.63;;;4.80;;
7324;SDS011;3703;48.016;7.802;2023-06-19T04:37:51;6.37;;;5.30;;
7324;SDS011;3703;48.016;7.802;2023-06-19T04:40:19;6.30;;;5.10;;
7324;SDS011;3703;48.016;7.802;2023-06-19T04:42:46;7.30;;;5.50;;
7324;SDS011;3703;48.016;7.802;2023-06-19T04:45:15;7.57;;;5.07;;
7324;SDS011;3703;48.016;7.802;2023-06-19T04:47:42;7.13;;;5.30;;
7324;SDS011;3703;48.016;7.802;2023-06-19T04:50:10;7.27;;;5.43;;
7324;SDS011;3703;48.016;7.802;2023-06-19T04:52:37;7.70;;;5.70;;
7324;SDS011;3703;48.016;7.802;2023-06-19T04:55:05;6.70;;;5.53;;
7324;SDS011;3703;48.016;7.802;2023-06-19T04:57:34;8.87;;;5.40;;
7324;SDS011;3703;48.016;7.802;2023-06-19T05:00:02;7.07;;;4.67;;
7324;SDS011;3703;48.016;7.802;2023-06-19T05:02:33;10.07;;;5.53;;
7324;SDS011;3703;48.016;7.802;2023-06-19T05:05:00;6.70;;;5.50;;
7324;SDS011;3703;48.016;7.802;2023-06-19T05:07:28;6.47;;;5.33;;
7324;SDS011;3703;48.016;7.802;2023-06-19T05:09:56;6.93;;;5.60;;
7324;SDS011;3703;48.016;7.802;2023-06-19T05:12:24;6.87;;;5.10;;
7324;SDS011;3703;48.016;7.802;2023-06-19T05:14:51;9.10;;;6.90;;
7324;SDS011;3703;48.016;7.802;2023-06-19T05:17:19;7.83;;;5.60;;
7324;SDS011;3703;48.016;7.802;2023-06-19T05:19:47;8.07;;;5.70;;
7324;SDS011;3703;48.016;7.802;2023-06-19T05:22:15;6.80;;;5.37;;
7324;SDS011;3703;48.016;7.802;2023-06-19T05:24:43;11.73;;;6.70;;
7324;SDS011;3703;48.016;7.802;2023-06-19T05:27:11;6.30;;;5.30;;
7324;SDS011;3703;48.016;7.802;2023-06-19T05:29:38;7.63;;;5.80;;
7324;SDS011;3703;48.016;7.802;2023-06-19T05:32:06;7.37;;;5.83;;
7324;SDS011;3703;48.016;7.802;2023-06-19T05:34:33;6.30;;;5.50;;
7324;SDS011;3703;48.016;7.802;2023-06-19T05:37:02;6.10;;;5.50;;
7324;SDS011;3703;48.016;7.802;2023-06-19T05:39:29;6.53;;;5.37;;
7324;SDS011;3703;48.016;7.802;2023-06-19T05:41:57;6.83;;;5.60;;
7324;SDS011;3703;48.016;7.802;2023-06-19T05:44:24;6.30;;;5.27;;
7324;SDS011;3703;48.016;7.802;2023-06-19T05:46:51;7.57;;;5.93;;
7324;SDS011;3703;48.016;7.802;2023-06-19T05:49:18;6.57;;;5.30;;
7324;SDS011;3703;48.016;7.802;2023-06-19T05:51:46;7.37;;;5.33;;
7324;SDS011;3703;48.016;7.802;2023-06-19T05:54:14;6.93;;;6.03;;
7324;SDS011;3703;48.016;7.802;2023-06-19T05:56:43;9.17;;;5.53;;
7324;SDS011;3703;48.016;7.802;2023-06-19T05:59:11;6.97;;;5.83;;
7324;SDS011;3703;48.016;7.802;2023-06-19T06:01:39;7.60;;;6.33;;
7324;SDS011;3703;48.016;7.802;2023-06-19T06:04:06;7.07;;;5.90;;
7324;SDS011;3703;48.016;7.802;2023-06-19T06:06:35;7.13;;;5.50;;
7324;SDS011;3703;48.016;7.802;2023-06-19T06:09:02;8.13;;;5.70;;
7324;SDS011;3703;48.016;7.802;2023-06-19T06:11:31;9.73;;;6.50;;
7324;SDS011;3703;48.016;7.802;2023-06-19T06:13:58;7.70;;;6.80;;
7324;SDS011;3703;48.016;7.802;2023-06-19T06:16:25;8.27;;;6.70;;
7324;SDS011;3703;48.016;7.802;2023-06-19T06:18:53;6.83;;;5.53;;
7324;SDS011;3703;48.016;7.802;2023-06-19T06:21:21;9.20;;;6.50;;
7324;SDS011;3703;48.016;7.802;2023-06-19T06:23:48;9.03;;;6.20;;
7324;SDS011;3703;48.016;7.802;2023-06-19T06:26:15;6.57;;;5.50;;
7324;SDS011;3703;48.016;7.802;2023-06-19T06:28:45;6.17;;;5.50;;
7324;SDS011;3703;48.016;7.802;2023-06-19T06:31:12;6.77;;;6.07;;
7324;SDS011;3703;48.016;7.802;2023-06-19T06:33:39;6.40;;;5.80;;
7324;SDS011;3703;48.016;7.802;2023-06-19T06:36:07;8.17;;;5.60;;
7324;SDS011;3703;48.016;7.802;2023-06-19T06:38:34;6.57;;;5.53;;
7324;SDS011;3703;48.016;7.802;2023-06-19T06:41:01;7.80;;;6.10;;
7324;SDS011;3703;48.016;7.802;2023-06-19T06:43:29;7.70;;;6.23;;
7324;SDS011;3703;48.016;7.802;2023-06-19T06:45:57;7.30;;;5.63;;
7324;SDS011;3703;48.016;7.802;2023-06-19T06:48:25;5.57;;;4.90;;
7324;SDS011;3703;48.016;7.802;2023-06-19T06:50:52;12.97;;;6.47;;
7324;SDS011;3703;48.016;7.802;2023-06-19T06:53:24;9.63;;;5.20;;
7324;SDS011;3703;48.016;7.802;2023-06-19T06:55:53;10.07;;;5.73;;
7324;SDS011;3703;48.016;7.802;2023-06-19T06:58:20;6.67;;;6.07;;
7324;SDS011;3703;48.016;7.802;2023-06-19T07:00:47;9.20;;;6.27;;
7324;SDS011;3703;48.016;7.802;2023-06-19T07:03:17;6.50;;;5.53;;
7324;SDS011;3703;48.016;7.802;2023-06-19T07:05:44;7.40;;;6.10;;
7324;SDS011;3703;48.016;7.802;2023-06-19T07:08:13;7.83;;;6.53;;
7324;SDS011;3703;48.016;7.802;2023-06-19T07:10:40;9.00;;;6.57;;
7324;SDS011;3703;48.016;7.802;2023-06-19T07:13:07;7.83;;;6.00;;
7324;SDS011;3703;48.016;7.802;2023-06-19T07:15:34;7.10;;;6.40;;
7324;SDS011;3703;48.016;7.802;2023-06-19T07:18:02;8.37;;;5.70;;
7324;SDS011;3703;48.016;7.802;2023-06-19T07:20:30;7.97;;;6.23;;
7324;SDS011;3703;48.016;7.802;2023-06-19T07:22:58;6.60;;;5.83;;
7324;SDS011;3703;48.016;7.802;2023-06-19T07:25:25;9.20;;;6.00;;
7324;SDS011;3703;48.016;7.802;2023-06-19T07:27:52;10.73;;;7.27;;
7324;SDS011;3703;48.016;7.802;2023-06-19T07:30:20;6.90;;;6.13;;
7324;SDS011;3703;48.016;7.802;2023-06-19T07:32:47;7.67;;;5.87;;
7324;SDS011;3703;48.016;7.802;2023-06-19T07:35:14;6.70;;;5.27;;
7324;SDS011;3703;48.016;7.802;2023-06-19T07:37:44;7.17;;;6.37;;
7324;SDS011;3703;48.016;7.802;2023-06-19T07:40:11;6.60;;;5.90;;
7324;SDS011;3703;48.016;7.802;2023-06-19T07:42:38;6.00;;;5.30;;
7324;SDS011;3703;48.016;7.802;2023-06-19T07:45:06;6.03;;;5.43;;
7324;SDS011;3703;48.016;7.802;2023-06-19T07:47:34;7.83;;;6.17;;
7324;SDS011;3703;48.016;7.802;2023-06-19T07:50:02;5.90;;;5.30;;
7324;SDS011;3703;48.016;7.802;2023-06-19T07:52:30;6.87;;;6.00;;
7324;SDS011;3703;48.016;7.802;2023-06-19T07:54:59;6.40;;;5.60;;
7324;SDS011;3703;48.016;7.802;2023-06-19T07:57:26;7.03;;;5.47;;
7324;SDS011;3703;48.016;7.802;2023-06-19T07:59:54;8.90;;;6.43;;
7324;SDS011;3703;48.016;7.802;2023-06-19T08:02:21;7.80;;;5.43;;
7324;SDS011;3703;48.016;7.802;2023-06-19T08:04:48;8.27;;;5.40;;
7324;SDS011;3703;48.016;7.802;2023-06-19T08:07:16;14.17;;;7.90;;
7324;SDS011;3703;48.016;7.802;2023-06-19T08:09:43;8.67;;;6.27;;
7324;SDS011;3703;48.016;7.802;2023-06-19T08:12:12;6.93;;;6.07;;
7324;SDS011;3703;48.016;7.802;2023-06-19T08:14:39;6.27;;;5.40;;
7324;SDS011;3703;48.016;7.802;2023-06-19T08:17:07;13.47;;;7.20;;
7324;SDS011;3703;48.016;7.802;2023-06-19T08:19:34;9.03;;;6.57;;
7324;SDS011;3703;48.016;7.802;2023-06-19T08:22:01;10.80;;;6.53;;
7324;SDS011;3703;48.016;7.802;2023-06-19T08:24:29;11.27;;;6.30;;
7324;SDS011;3703;48.016;7.802;2023-06-19T08:26:56;9.33;;;6.43;;
7324;SDS011;3703;48.016;7.802;2023-06-19T08:29:25;9.80;;;6.10;;
7324;SDS011;3703;48.016;7.802;2023-06-19T08:31:53;7.77;;;6.17;;
7324;SDS011;3703;48.016;7.802;2023-06-19T08:34:20;5.97;;;5.37;;
7324;SDS011;3703;48.016;7.802;2023-06-19T08:36:47;8.90;;;5.90;;
7324;SDS011;3703;48.016;7.802;2023-06-19T08:39:15;7.10;;;6.20;;
7324;SDS011;3703;48.016;7.802;2023-06-19T08:41:42;6.93;;;5.73;;
7324;SDS011;3703;48.016;7.802;2023-06-19T08:44:10;7.10;;;6.13;;
7324;SDS011;3703;48.016;7.802;2023-06-19T08:46:38;8.43;;;6.63;;
7324;SDS011;3703;48.016;7.802;2023-06-19T08:49:07;6.87;;;6.17;;
7324;SDS011;3703;48.016;7.802;2023-06-19T08:51:35;6.60;;;5.60;;
7324;SDS011;3703;48.016;7.802;2023-06-19T08:54:03;8.17;;;5.80;;
7324;SDS011;3703;48.016;7.802;2023-06-19T08:56:33;6.13;;;5.50;;
7324;SDS011;3703;48.016;7.802;2023-06-19T08:59:09;5.63;;;4.97;;
7324;SDS011;3703;48.016;7.802;2023-06-19T09:01:39;6.53;;;5.13;;
7324;SDS011;3703;48.016;7.802;2023-06-19T09:04:10;5.83;;;5.23;;
7324;SDS011;3703;48.016;7.802;2023-06-19T09:06:45;5.70;;;5.00;;
7324;SDS011;3703;48.016;7.802;2023-06-19T09:09:14;5.70;;;5.10;;
7324;SDS011;3703;48.016;7.802;2023-06-19T09:11:41;5.23;;;4.60;;
7324;SDS011;3703;48.016;7.802;2023-06-19T09:14:09;8.00;;;5.60;;
7324;SDS011;3703;48.016;7.802;2023-06-19T09:16:39;5.87;;;4.90;;
7324;SDS011;3703;48.016;7.802;2023-06-19T09:19:07;6.80;;;5.27;;
7324;SDS011;3703;48.016;7.802;2023-06-19T09:21:36;5.50;;;5.00;;
7324;SDS011;3703;48.016;7.802;2023-06-19T09:24:05;5.97;;;5.37;;
7324;SDS011;3703;48.016;7.802;2023-06-19T09:26:33;5.97;;;5.00;;
7324;SDS011;3703;48.016;7.802;2023-06-19T09:29:10;6.57;;;5.90;;
7324;SDS011;3703;48.016;7.802;2023-06-19T09:31:40;6.17;;;5.57;;
7324;SDS011;3703;48.016;7.802;2023-06-19T09:34:08;8.33;;;5.20;;
7324;SDS011;3703;48.016;7.802;2023-06-19T09:36:35;6.40;;;5.00;;
7324;SDS011;3703;48.016;7.802;2023-06-19T09:39:03;6.37;;;5.77;;
7324;SDS011;3703;48.016;7.802;2023-06-19T09:41:30;5.40;;;4.87;;
7324;SDS011;3703;48.016;7.802;2023-06-19T09:43:59;5.70;;;5.10;;
7324;SDS011;3703;48.016;7.802;2023-06-19T09:46:29;5.27;;;4.77;;
7324;SDS011;3703;48.016;7.802;2023-06-19T09:49:00;6.73;;;4.40;;
7324;SDS011;3703;48.016;7.802;2023-06-19T09:51:30;5.70;;;4.73;;
7324;SDS011;3703;48.016;7.802;2023-06-19T09:54:04;5.00;;;4.30;;
7324;SDS011;3703;48.016;7.802;2023-06-19T09:56:31;6.30;;;4.60;;
7324;SDS011;3703;48.016;7.802;2023-06-19T09:59:00;5.33;;;4.23;;
7324;SDS011;3703;48.016;7.802;2023-06-19T10:01:29;4.43;;;4.03;;
7324;SDS011;3703;48.016;7.802;2023-06-19T10:04:05;5.00;;;4.50;;
7324;SDS011;3703;48.016;7.802;2023-06-19T10:06:42;5.33;;;4.77;;
7324;SDS011;3703;48.016;7.802;2023-06-19T10:09:10;5.27;;;4.77;;
7324;SDS011;3703;48.016;7.802;2023-06-19T10:11:47;4.83;;;4.43;;
7324;SDS011;3703;48.016;7.802;2023-06-19T10:14:16;8.03;;;4.50;;
7324;SDS011;3703;48.016;7.802;2023-06-19T10:16:44;6.30;;;4.70;;
7324;SDS011;3703;48.016;7.802;2023-06-19T10:19:14;6.77;;;4.90;;
7324;SDS011;3703;48.016;7.802;2023-06-19T10:21:44;5.40;;;4.43;;
7324;SDS011;3703;48.016;7.802;2023-06-19T10:24:14;5.33;;;4.20;;
7324;SDS011;3703;48.016;7.802;2023-06-19T10:26:55;5.20;;;4.70;;
7324;SDS011;3703;48.016;7.802;2023-06-19T10:29:23;5.70;;;4.40;;
7324;SDS011;3703;48.016;7.802;2023-06-19T10:31:52;6.27;;;4.97;;
7324;SDS011;3703;48.016;7.802;2023-06-19T10:34:23;4.80;;;4.30;;
7324;SDS011;3703;48.016;7.802;2023-06-19T10:37:00;4.80;;;4.30;;
7324;SDS011;3703;48.016;7.802;2023-06-19T10:39:28;4.83;;;4.33;;
7324;SDS011;3703;48.016;7.802;2023-06-19T10:42:06;6.20;;;4.90;;
7324;SDS011;3703;48.016;7.802;2023-06-19T10:44:35;4.73;;;4.33;;
7324;SDS011;3703;48.016;7.802;2023-06-19T10:47:03;5.27;;;4.60;;
7324;SDS011;3703;48.016;7.802;2023-06-19T10:49:32;5.67;;;4.53;;
7324;SDS011;3703;48.016;7.802;2023-06-19T10:51:59;5.77;;;4.57;;
7324;SDS011;3703;48.016;7.802;2023-06-19T10:54:27;5.77;;;4.67;;
7324;SDS011;3703;48.016;7.802;2023-06-19T10:56:56;8.03;;;4.80;;
7324;SDS011;3703;48.016;7.802;2023-06-19T10:59:29;5.63;;;5.10;;
7324;SDS011;3703;48.016;7.802;2023-06-19T11:01:57;5.10;;;4.70;;
7324;SDS011;3703;48.016;7.802;2023-06-19T11:04:24;7.00;;;5.40;;
7324;SDS011;3703;48.016;7.802;2023-06-19T11:06:51;6.77;;;4.73;;
7324;SDS011;3703;48.016;7.802;2023-06-19T11:09:19;5.33;;;4.83;;
7324;SDS011;3703;48.016;7.802;2023-06-19T11:11:47;5.27;;;4.77;;
7324;SDS011;3703;48.016;7.802;2023-06-19T11:14:15;6.07;;;4.90;;
7324;SDS011;3703;48.016;7.802;2023-06-19T11:16:45;5.40;;;4.40;;
7324;SDS011;3703;48.016;7.802;2023-06-19T11:19:15;5.33;;;4.83;;
7324;SDS011;3703;48.016;7.802;2023-06-19T11:21:45;4.77;;;4.37;;
7324;SDS011;3703;48.016;7.802;2023-06-19T11:24:14;5.03;;;4.37;;
7324;SDS011;3703;48.016;7.802;2023-06-19T11:26:42;6.33;;;4.50;;
7324;SDS011;3703;48.016;7.802;2023-06-19T11:29:15;5.90;;;4.77;;
7324;SDS011;3703;48.016;7.802;2023-06-19T11:31:45;5.20;;;4.70;;
7324;SDS011;3703;48.016;7.802;2023-06-19T11:34:13;5.00;;;4.57;;
7324;SDS011;3703;48.016;7.802;2023-06-19T11:36:40;6.23;;;5.20;;
7324;SDS011;3703;48.016;7.802;2023-06-19T11:39:09;5.17;;;4.67;;
7324;SDS011;3703;48.016;7.802;2023-06-19T11:41:38;5.20;;;4.70;;
7324;SDS011;3703;48.016;7.802;2023-06-19T11:44:07;5.73;;;4.70;;
7324;SDS011;3703;48.016;7.802;2023-06-19T11:46:35;6.10;;;4.60;;
7324;SDS011;3703;48.016;7.802;2023-06-19T11:49:14;6.27;;;4.70;;
7324;SDS011;3703;48.016;7.802;2023-06-19T11:51:43;5.67;;;4.30;;
7324;SDS011;3703;48.016;7.802;2023-06-19T11:54:12;6.67;;;4.90;;
7324;SDS011;3703;48.016;7.802;2023-06-19T11:56:41;5.77;;;4.50;;
7324;SDS011;3703;48.016;7.802;2023-06-19T11:59:08;7.20;;;5.07;;
7324;SDS011;3703;48.016;7.802;2023-06-19T12:01:36;6.23;;;4.60;;
7324;SDS011;3703;48.016;7.802;2023-06-19T12:04:03;6.10;;;4.67;;
7324;SDS011;3703;48.016;7.802;2023-06-19T12:06:32;7.80;;;5.30;;
7324;SDS011;3703;48.016;7.802;2023-06-19T12:09:02;5.03;;;4.20;;
7324;SDS011;3703;48.016;7.802;2023-06-19T12:11:30;6.23;;;4.87;;
7324;SDS011;3703;48.016;7.802;2023-06-19T12:13:58;6.93;;;4.77;;
7324;SDS011;3703;48.016;7.802;2023-06-19T12:16:25;5.83;;;4.63;;
7324;SDS011;3703;48.016;7.802;2023-06-19T12:18:53;5.70;;;4.50;;
7324;SDS011;3703;48.016;7.802;2023-06-19T12:21:20;6.57;;;5.50;;
7324;SDS011;3703;48.016;7.802;2023-06-19T12:23:49;7.40;;;5.43;;
7324;SDS011;3703;48.016;7.802;2023-06-19T12:26:16;5.80;;;5.10;;
7324;SDS011;3703;48.016;7.802;2023-06-19T12:28:43;7.40;;;6.20;;
7324;SDS011;3703;48.016;7.802;2023-06-19T12:31:11;6.63;;;4.90;;
7324;SDS011;3703;48.016;7.802;2023-06-19T12:33:38;5.00;;;4.50;;
7324;SDS011;3703;48.016;7.802;2023-06-19T12:36:09;5.67;;;4.60;;
7324;SDS011;3703;48.016;7.802;2023-06-19T12:38:38;5.77;;;5.00;;
7324;SDS011;3703;48.016;7.802;2023-06-19T12:41:07;7.13;;;6.23;;
7324;SDS011;3703;48.016;7.802;2023-06-19T12:43:34;7.77;;;5.80;;
7324;SDS011;3703;48.016;7.802;2023-06-19T12:46:01;5.50;;;5.00;;
7324;SDS011;3703;48.016;7.802;2023-06-19T12:48:29;5.20;;;4.70;;
7324;SDS011;3703;48.016;7.802;2023-06-19T12:50:56;5.83;;;5.23;;
7324;SDS011;3703;48.016;7.802;2023-06-19T12:53:23;6.73;;;5.30;;
7324;SDS011;3703;48.016;7.802;2023-06-19T12:55:56;8.53;;;6.23;;
7324;SDS011;3703;48.016;7.802;2023-06-19T12:58:25;6.10;;;5.50;;
7324;SDS011;3703;48.016;7.802;2023-06-19T13:00:53;5.07;;;4.57;;
7324;SDS011;3703;48.016;7.802;2023-06-19T13:03:20;6.23;;;4.77;;
7324;SDS011;3703;48.016;7.802;2023-06-19T13:05:48;6.20;;;5.50;;
7324;SDS011;3703;48.016;7.802;2023-06-19T13:08:15;7.67;;;5.53;;
7324;SDS011;3703;48.016;7.802;2023-06-19T13:10:42;7.27;;;5.33;;
7324;SDS011;3703;48.016;7.802;2023-06-19T13:13:10;7.20;;;6.00;;
7324;SDS011;3703;48.016;7.802;2023-06-19T13:15:40;6.23;;;5.67;;
7324;SDS011;3703;48.016;7.802;2023-06-19T13:18:07;6.10;;;4.90;;
7324;SDS011;3703;48.016;7.802;2023-06-19T13:20:34;5.70;;;5.10;;
7324;SDS011;3703;48.016;7.802;2023-06-19T13:23:02;5.40;;;4.90;;
7324;SDS011;3703;48.016;7.802;2023-06-19T13:25:29;5.87;;;4.53;;
7324;SDS011;3703;48.016;7.802;2023-06-19T13:27:57;6.10;;;4.80;;
7324;SDS011;3703;48.016;7.802;2023-06-19T13:30:24;5.60;;;5.10;;
7324;SDS011;3703;48.016;7.802;2023-06-19T13:32:53;7.80;;;5.47;;
7324;SDS011;3703;48.016;7.802;2023-06-19T13:35:21;6.93;;;6.17;;
7324;SDS011;3703;48.016;7.802;2023-06-19T13:37:48;6.97;;;5.30;;
7324;SDS011;3703;48.016;7.802;2023-06-19T13:40:15;5.93;;;5.10;;
7324;SDS011;3703;48.016;7.802;2023-06-19T13:42:42;5.40;;;4.90;;
7324;SDS011;3703;48.016;7.802;2023-06-19T13:45:10;7.07;;;5.77;;
7324;SDS011;3703;48.016;7.802;2023-06-19T13:47:37;7.47;;;6.03;;
7324;SDS011;3703;48.016;7.802;2023-06-19T13:50:06;7.33;;;6.20;;
7324;SDS011;3703;48.016;7.802;2023-06-19T13:52:34;7.43;;;6.43;;
7324;SDS011;3703;48.016;7.802;2023-06-19T13:55:03;7.43;;;6.57;;
7324;SDS011;3703;48.016;7.802;2023-06-19T13:57:31;7.60;;;6.80;;
7324;SDS011;3703;48.016;7.802;2023-06-19T13:59:58;5.73;;;4.90;;
7324;SDS011;3703;48.016;7.802;2023-06-19T14:02:25;6.30;;;5.70;;
7324;SDS011;3703;48.016;7.802;2023-06-19T14:04:52;7.87;;;6.17;;
7324;SDS011;3703;48.016;7.802;2023-06-19T14:07:21;6.53;;;5.50;;
7324;SDS011;3703;48.016;7.802;2023-06-19T14:09:49;5.97;;;5.37;;
7324;SDS011;3703;48.016;7.802;2023-06-19T14:12:18;6.63;;;5.93;;
7324;SDS011;3703;48.016;7.802;2023-06-19T14:14:46;8.00;;;6.10;;
7324;SDS011;3703;48.016;7.802;2023-06-19T14:17:13;8.43;;;6.40;;
7324;SDS011;3703;48.016;7.802;2023-06-19T14:19:41;6.70;;;6.00;;
7324;SDS011;3703;48.016;7.802;2023-06-19T14:22:08;8.53;;;7.50;;
7324;SDS011;3703;48.016;7.802;2023-06-19T14:24:36;10.47;;;9.20;;
7324;SDS011;3703;48.016;7.802;2023-06-19T14:27:04;8.57;;;6.40;;
7324;SDS011;3703;48.016;7.802;2023-06-19T14:29:32;8.53;;;6.77;;
7324;SDS011;3703;48.016;7.802;2023-06-19T14:31:59;10.70;;;7.70;;
7324;SDS011;3703;48.016;7.802;2023-06-19T14:34:28;9.77;;;8.10;;
7324;SDS011;3703;48.016;7.802;2023-06-19T14:36:55;8.63;;;7.43;;
7324;SDS011;3703;48.016;7.802;2023-06-19T14:39:22;7.30;;;6.33;;
7324;SDS011;3703;48.016;7.802;2023-06-19T14:41:51;7.77;;;6.97;;
7324;SDS011;3703;48.016;7.802;2023-06-19T14:44:18;9.23;;;6.33;;
7324;SDS011;3703;48.016;7.802;2023-06-19T14:46:46;7.87;;;7.07;;
7324;SDS011;3703;48.016;7.802;2023-06-19T14:49:13;8.70;;;6.00;;
7324;SDS011;3703;48.016;7.802;2023-06-19T14:51:41;7.57;;;6.73;;
7324;SDS011;3703;48.016;7.802;2023-06-19T14:54:09;7.17;;;6.47;;
7324;SDS011;3703;48.016;7.802;2023-06-19T14:56:36;7.30;;;6.17;;
7324;SDS011;3703;48.016;7.802;2023-06-19T14:59:04;7.37;;;6.63;;
7324;SDS011;3703;48.016;7.802;2023-06-19T15:01:31;9.40;;;8.50;;
7324;SDS011;3703;48.016;7.802;2023-06-19T15:03:59;9.43;;;7.27;;
7324;SDS011;3703;48.016;7.802;2023-06-19T15:06:26;9.97;;;7.63;;
7324;SDS011;3703;48.016;7.802;2023-06-19T15:08:53;8.67;;;7.40;;
7324;SDS011;3703;48.016;7.802;2023-06-19T15:11:20;10.10;;;7.17;;
7324;SDS011;3703;48.016;7.802;2023-06-19T15:13:48;12.40;;;8.23;;
7324;SDS011;3703;48.016;7.802;2023-06-19T15:16:16;8.53;;;7.73;;
7324;SDS011;3703;48.016;7.802;2023-06-19T15:18:47;8.27;;;7.43;;
7324;SDS011;3703;48.016;7.802;2023-06-19T15:21:14;8.73;;;6.83;;